Time;durP1;ratioP1;P1;durP2;ratioP2;P2;SDS_P1;SDS_P2;PMS_P1;PMS_P2;Temp;Humidity;BMP_temperature;BMP_pressure;BME280_temperature;BME280_humidity;BME280_pressure;Samples;Min_cycle;Max_cycle;Signal;HPM_P1;HPM_P2
2022/10/02 00:01:21;;;;;;;11.38;2.70;;;10.40;98.80;;;;;;4996886;28;20129;-77
2022/10/02 00:03:48;;;;;;;14.93;2.80;;;10.30;98.60;;;;;;4996113;28;20041;-77
2022/10/02 00:06:23;;;;;;;19.92;3.15;;;10.30;98.70;;;;;;5008301;28;20029;-77
2022/10/02 00:08:55;;;;;;;10.50;2.50;;;10.30;98.70;;;;;;5007085;28;20034;-78
2022/10/02 00:11:30;;;;;;;10.50;2.30;;;10.40;98.70;;;;;;4998544;28;20030;-78
2022/10/02 00:14:00;;;;;;;13.00;3.05;;;10.30;98.70;;;;;;5001403;28;20505;-77
2022/10/02 00:16:38;;;;;;;16.23;2.70;;;10.30;98.70;;;;;;5006475;28;20033;-77
2022/10/02 00:19:04;;;;;;;14.98;2.60;;;10.40;98.90;;;;;;5004005;28;20057;-77
2022/10/02 00:21:47;;;;;;;16.20;2.60;;;10.40;98.90;;;;;;5007282;28;20113;-77
2022/10/02 00:24:17;;;;;;;16.95;2.25;;;10.40;99.00;;;;;;5000439;28;20060;-78
2022/10/02 00:27:02;;;;;;;12.88;2.67;;;10.40;98.90;;;;;;5005164;28;20092;-78
2022/10/02 00:29:38;;;;;;;16.48;2.75;;;10.30;98.90;;;;;;5007504;28;20057;-77
2022/10/02 00:32:36;;;;;;;15.90;2.63;;;10.30;98.90;;;;;;4995830;28;20044;-77
2022/10/02 00:35:23;;;;;;;14.23;2.90;;;10.20;99.00;;;;;;4996147;28;20050;-77
2022/10/02 00:38:23;;;;;;;17.70;3.17;;;10.20;99.00;;;;;;5004126;28;20153;-77
2022/10/02 00:41:23;;;;;;;12.23;2.75;;;10.10;99.10;;;;;;4984783;28;20462;-77
2022/10/02 00:44:26;;;;;;;19.40;2.83;;;10.10;99.00;;;;;;5003801;28;20455;-77
2022/10/02 00:47:10;;;;;;;15.45;2.53;;;10.10;99.10;;;;;;4998187;28;20289;-77
2022/10/02 00:50:02;;;;;;;18.05;3.25;;;10.00;99.20;;;;;;4999538;28;20026;-77
2022/10/02 00:52:46;;;;;;;18.33;2.80;;;10.10;99.30;;;;;;4998208;28;20205;-77
2022/10/02 00:55:35;;;;;;;13.80;2.80;;;10.10;99.30;;;;;;5000770;28;20053;-78
2022/10/02 00:58:22;;;;;;;15.18;3.17;;;10.10;99.30;;;;;;5003642;28;20060;-77
2022/10/02 01:01:15;;;;;;;18.35;3.17;;;10.10;99.30;;;;;;5006918;28;20076;-77
2022/10/02 01:03:45;;;;;;;16.60;3.00;;;10.10;99.30;;;;;;4988236;28;20052;-77
2022/10/02 01:06:11;;;;;;;13.85;3.58;;;10.00;99.20;;;;;;5003722;28;20026;-77
2022/10/02 01:08:38;;;;;;;13.95;2.50;;;10.00;99.40;;;;;;4997730;28;20038;-77
2022/10/02 01:11:05;;;;;;;16.63;3.20;;;10.00;99.40;;;;;;5001357;28;20085;-78
2022/10/02 01:13:31;;;;;;;13.18;2.95;;;10.10;99.40;;;;;;5006696;28;20051;-78
2022/10/02 01:16:02;;;;;;;17.80;2.75;;;10.10;99.40;;;;;;5003461;28;20035;-78
2022/10/02 01:18:29;;;;;;;15.93;3.20;;;10.10;99.40;;;;;;5005302;28;20101;-78
2022/10/02 01:21:04;;;;;;;13.38;3.10;;;10.10;99.40;;;;;;5004543;28;20486;-77
2022/10/02 01:23:38;;;;;;;13.55;3.10;;;10.10;99.30;;;;;;5004866;28;20034;-78
2022/10/02 01:26:04;;;;;;;13.85;3.15;;;10.20;99.30;;;;;;5003560;28;20025;-78
2022/10/02 01:28:30;;;;;;;15.32;3.17;;;10.20;99.20;;;;;;5006371;28;20485;-78
2022/10/02 01:31:02;;;;;;;17.90;2.97;;;10.20;99.20;;;;;;5002181;28;20038;-77
2022/10/02 01:33:29;;;;;;;18.73;2.90;;;10.30;99.20;;;;;;5014899;28;20128;-77
2022/10/02 01:35:55;;;;;;;13.57;2.85;;;10.20;99.00;;;;;;5021985;28;20112;-77
2022/10/02 01:38:22;;;;;;;13.63;2.50;;;10.10;99.00;;;;;;5010555;28;20406;-77
2022/10/02 01:40:48;;;;;;;12.35;2.47;;;10.10;99.00;;;;;;5011274;28;20446;-77
2022/10/02 01:43:18;;;;;;;15.93;3.08;;;10.10;99.00;;;;;;5005579;28;20030;-77
2022/10/02 01:45:57;;;;;;;10.50;2.70;;;10.00;99.00;;;;;;5011770;28;20425;-78
2022/10/02 01:48:46;;;;;;;12.80;2.42;;;10.00;99.00;;;;;;5019018;28;20783;-77
2022/10/02 01:51:20;;;;;;;10.27;2.42;;;10.00;99.00;;;;;;5010080;28;20128;-78
2022/10/02 01:54:14;;;;;;;13.07;2.38;;;9.90;99.00;;;;;;5012831;28;20033;-78
2022/10/02 01:56:53;;;;;;;13.27;2.65;;;9.90;99.00;;;;;;5019991;28;20172;-78
2022/10/02 02:00:08;;;;;;;16.63;3.00;;;10.00;99.10;;;;;;5000364;28;20455;-78
2022/10/02 02:02:57;;;;;;;11.15;2.80;;;10.10;99.00;;;;;;4964034;28;20050;-78
2022/10/02 02:05:40;;;;;;;14.68;2.65;;;10.10;99.00;;;;;;5002480;28;20052;-77
2022/10/02 02:08:16;;;;;;;12.50;3.20;;;10.20;98.90;;;;;;5011292;28;20050;-77
2022/10/02 02:11:08;;;;;;;13.20;2.70;;;10.30;98.90;;;;;;5006857;28;20189;-77
2022/10/02 02:13:52;;;;;;;12.85;3.10;;;10.30;98.90;;;;;;5005843;28;20456;-76
2022/10/02 02:16:37;;;;;;;10.20;2.78;;;10.30;98.90;;;;;;5009836;28;20038;-76
2022/10/02 02:19:12;;;;;;;12.85;2.70;;;10.30;98.90;;;;;;5007935;28;20034;-76
2022/10/02 02:21:42;;;;;;;15.30;2.78;;;10.30;98.90;;;;;;5009031;28;20079;-77
2022/10/02 02:24:19;;;;;;;14.95;2.38;;;10.20;98.90;;;;;;5006811;28;20029;-77
2022/10/02 02:26:46;;;;;;;10.30;2.38;;;10.10;98.90;;;;;;5007384;28;20072;-76
2022/10/02 02:29:14;;;;;;;11.32;2.72;;;10.10;98.90;;;;;;5010555;28;20459;-76
2022/10/02 02:31:46;;;;;;;12.13;2.38;;;10.10;98.90;;;;;;5004189;28;20374;-77
2022/10/02 02:34:17;;;;;;;12.68;2.50;;;10.10;98.80;;;;;;5000215;28;20379;-76
2022/10/02 02:36:47;;;;;;;14.17;2.33;;;10.00;98.90;;;;;;5004492;28;20045;-77
2022/10/02 02:39:21;;;;;;;15.73;2.80;;;10.00;98.80;;;;;;4999314;28;20779;-77
2022/10/02 02:41:51;;;;;;;10.55;2.30;;;9.90;98.90;;;;;;5007335;28;20288;-77
2022/10/02 02:44:19;;;;;;;12.07;2.72;;;9.80;98.80;;;;;;5009708;28;20038;-76
2022/10/02 02:47:14;;;;;;;13.80;3.03;;;9.70;98.90;;;;;;5012669;28;20089;-78
2022/10/02 02:50:23;;;;;;;8.07;2.75;;;9.70;99.00;;;;;;5005440;28;20496;-77
2022/10/02 02:52:57;;;;;;;12.48;3.35;;;9.60;99.00;;;;;;5004959;28;20065;-77
2022/10/02 02:55:31;;;;;;;12.88;2.90;;;9.60;99.10;;;;;;5003474;28;20371;-76
2022/10/02 02:58:17;;;;;;;17.33;4.05;;;9.60;99.10;;;;;;5008514;28;20136;-76
2022/10/02 03:00:43;;;;;;;15.25;3.70;;;9.60;99.20;;;;;;5008936;28;20423;-77
2022/10/02 03:03:09;;;;;;;11.98;3.78;;;9.50;99.30;;;;;;5016907;28;20060;-77
2022/10/02 03:05:38;;;;;;;14.18;3.50;;;9.50;99.30;;;;;;5008746;28;20038;-76
2022/10/02 03:08:09;;;;;;;12.25;3.83;;;9.50;99.40;;;;;;5009316;28;20086;-77
2022/10/02 03:10:53;;;;;;;13.55;3.45;;;9.50;99.40;;;;;;5005969;28;20486;-77
2022/10/02 03:13:37;;;;;;;13.32;3.50;;;9.50;99.50;;;;;;5006044;28;20036;-77
2022/10/02 03:16:41;;;;;;;14.88;3.67;;;9.50;99.50;;;;;;5011170;28;20419;-77
2022/10/02 03:19:43;;;;;;;18.55;4.10;;;9.50;99.50;;;;;;5008568;28;20033;-76
2022/10/02 03:22:26;;;;;;;14.27;4.13;;;9.50;99.60;;;;;;5001404;28;20034;-77
2022/10/02 03:25:05;;;;;;;8.75;4.03;;;9.50;99.70;;;;;;4995295;28;20513;-77
2022/10/02 03:27:43;;;;;;;17.08;4.93;;;9.50;99.70;;;;;;5005081;28;20176;-77
2022/10/02 03:30:14;;;;;;;10.40;4.63;;;9.50;99.70;;;;;;5009209;28;20038;-76
2022/10/02 03:32:42;;;;;;;15.48;4.68;;;9.60;99.80;;;;;;4998196;28;20057;-76
2022/10/02 03:35:11;;;;;;;13.65;4.75;;;9.60;99.80;;;;;;5006081;28;20046;-77
2022/10/02 03:37:43;;;;;;;16.25;4.80;;;9.60;99.80;;;;;;5008828;28;20133;-76
2022/10/02 03:40:09;;;;;;;17.67;5.70;;;9.60;99.90;;;;;;5005400;28;20030;-76
2022/10/02 03:42:35;;;;;;;13.45;5.32;;;9.60;99.90;;;;;;5005950;28;20036;-77
2022/10/02 03:45:01;;;;;;;16.95;4.72;;;9.60;99.80;;;;;;5009552;28;20407;-77
2022/10/02 03:47:26;;;;;;;25.15;5.50;;;9.60;99.90;;;;;;4999772;28;20109;-77
2022/10/02 03:49:52;;;;;;;16.30;4.90;;;9.50;99.80;;;;;;5008214;28;20065;-77
2022/10/02 03:52:22;;;;;;;15.77;4.80;;;9.50;99.90;;;;;;5009260;28;20477;-76
2022/10/02 03:54:55;;;;;;;20.17;6.10;;;9.60;99.90;;;;;;5021980;28;20041;-77
2022/10/02 03:57:23;;;;;;;13.35;4.85;;;9.50;99.90;;;;;;5007233;28;20348;-76
2022/10/02 03:59:59;;;;;;;17.65;5.53;;;9.50;99.90;;;;;;5008489;28;20041;-77
2022/10/02 04:02:39;;;;;;;25.45;5.38;;;9.50;99.90;;;;;;5003486;28;20073;-76
2022/10/02 04:05:40;;;;;;;19.13;4.93;;;9.50;99.90;;;;;;5017634;28;20120;-76
2022/10/02 04:08:22;;;;;;;;;;;9.50;99.90;;;;;;5006528;28;20208;-77
2022/10/02 04:11:11;;;;;;;24.50;5.32;;;9.50;99.90;;;;;;5020427;28;20058;-77
2022/10/02 04:13:57;;;;;;;19.08;4.88;;;9.50;99.90;;;;;;4999533;28;20354;-77
2022/10/02 04:16:51;;;;;;;20.75;5.07;;;9.50;99.90;;;;;;5022351;28;20030;-77
2022/10/02 04:19:25;;;;;;;18.90;5.03;;;9.50;99.90;;;;;;4999651;28;20110;-77
2022/10/02 04:21:58;;;;;;;17.25;5.10;;;9.50;99.90;;;;;;5007192;28;20497;-77
2022/10/02 04:24:37;;;;;;;20.80;4.97;;;9.50;99.90;;;;;;5005741;28;20029;-77
2022/10/02 04:27:14;;;;;;;22.55;5.93;;;9.50;99.90;;;;;;5003566;28;20426;-77
2022/10/02 04:29:48;;;;;;;14.40;5.63;;;9.50;99.90;;;;;;5008979;28;20133;-68
2022/10/02 04:32:19;;;;;;;27.55;6.10;;;9.50;99.90;;;;;;5004162;28;20087;-66
2022/10/02 04:34:45;;;;;;;19.00;6.70;;;9.50;99.90;;;;;;5009047;28;20180;-66
2022/10/02 04:37:41;;;;;;;21.08;6.78;;;9.50;99.90;;;;;;5005384;28;20110;-67
2022/10/02 04:40:12;;;;;;;25.60;7.25;;;9.50;99.90;;;;;;5005991;28;20045;-66
2022/10/02 04:43:05;;;;;;;19.17;7.10;;;9.50;99.90;;;;;;5005926;28;20105;-67
2022/10/02 04:45:45;;;;;;;28.67;7.57;;;9.60;99.90;;;;;;5008621;28;20164;-67
2022/10/02 04:48:27;;;;;;;25.17;8.48;;;9.60;99.90;;;;;;5007637;28;20041;-67
2022/10/02 04:51:07;;;;;;;19.95;9.05;;;9.60;99.90;;;;;;4997014;28;20093;-67
2022/10/02 04:53:58;;;;;;;29.30;8.50;;;9.60;99.90;;;;;;5007826;28;20065;-67
2022/10/02 04:56:24;;;;;;;;;;;9.60;99.90;;;;;;5007515;28;20136;-67
2022/10/02 04:59:03;;;;;;;29.50;8.77;;;9.60;99.90;;;;;;5004780;28;19957;-67
2022/10/02 05:01:57;;;;;;;29.50;8.80;;;9.60;99.90;;;;;;5007529;28;20046;-67
2022/10/02 05:04:40;;;;;;;24.00;8.68;;;9.60;99.90;;;;;;4991672;28;20178;-67
2022/10/02 05:07:44;;;;;;;23.42;9.63;;;9.60;99.90;;;;;;5001341;28;20056;-67
2022/10/02 05:10:25;;;;;;;25.90;8.90;;;9.60;99.90;;;;;;5008374;28;20022;-68
2022/10/02 05:13:26;;;;;;;35.42;10.65;;;9.60;99.90;;;;;;5010696;28;20030;-68
2022/10/02 05:16:28;;;;;;;33.60;10.18;;;9.60;99.90;;;;;;4975427;28;20094;-67
2022/10/02 05:19:12;;;;;;;29.63;9.93;;;9.60;99.90;;;;;;4999827;28;20115;-67
2022/10/02 05:22:03;;;;;;;32.08;9.88;;;9.60;99.90;;;;;;5007298;28;20431;-67
2022/10/02 05:24:48;;;;;;;30.38;9.70;;;9.60;99.90;;;;;;5010062;28;20111;-67
2022/10/02 05:27:32;;;;;;;23.95;9.57;;;9.60;99.90;;;;;;5008007;28;20114;-67
2022/10/02 05:30:10;;;;;;;37.60;11.13;;;9.60;99.90;;;;;;5004818;28;20121;-67
2022/10/02 05:32:51;;;;;;;31.40;10.55;;;9.70;99.90;;;;;;5009410;28;20381;-65
2022/10/02 05:35:52;;;;;;;33.50;11.30;;;9.70;99.90;;;;;;5009372;28;20050;-65
2022/10/02 05:39:09;;;;;;;29.90;10.23;;;9.70;99.90;;;;;;5010019;28;20466;-65
2022/10/02 05:41:40;;;;;;;33.60;10.55;;;9.80;99.90;;;;;;4985465;28;20061;-66
2022/10/02 05:44:13;;;;;;;29.40;10.32;;;9.90;99.90;;;;;;5009251;28;20053;-65
2022/10/02 05:46:57;;;;;;;40.95;10.32;;;10.00;99.90;;;;;;5010679;28;20552;-66
2022/10/02 05:49:40;;;;;;;26.85;10.13;;;10.00;99.90;;;;;;5011811;28;20351;-65
2022/10/02 05:52:18;;;;;;;33.10;10.10;;;10.10;99.90;;;;;;5010927;28;20105;-66
2022/10/02 05:54:59;;;;;;;35.05;10.40;;;10.20;99.90;;;;;;5010134;28;20061;-65
2022/10/02 05:57:32;;;;;;;39.85;10.98;;;10.30;99.90;;;;;;4998273;28;20050;-66
2022/10/02 06:00:16;;;;;;;33.75;9.32;;;10.40;99.90;;;;;;5011231;28;20033;-65
2022/10/02 06:03:25;;;;;;;39.03;10.10;;;10.50;99.90;;;;;;5011213;28;20030;-66
2022/10/02 06:05:55;;;;;;;28.42;9.38;;;10.50;99.90;;;;;;5006909;28;20462;-65
2022/10/02 06:08:41;;;;;;;27.95;9.90;;;10.60;99.90;;;;;;5011225;28;20072;-66
2022/10/02 06:11:39;;;;;;;33.58;12.15;;;10.60;99.90;;;;;;5014677;28;20331;-65
2022/10/02 06:14:09;;;;;;;29.08;11.38;;;10.70;99.90;;;;;;5003693;28;20346;-66
2022/10/02 06:16:48;;;;;;;27.97;12.50;;;10.70;99.90;;;;;;5009256;28;20109;-65
2022/10/02 06:19:20;;;;;;;32.72;11.63;;;10.80;99.90;;;;;;5010851;28;20030;-66
2022/10/02 06:21:51;;;;;;;38.05;11.10;;;10.70;99.90;;;;;;5008138;28;20133;-66
2022/10/02 06:24:35;;;;;;;33.40;10.93;;;10.80;99.90;;;;;;5009875;28;20105;-65
2022/10/02 06:27:09;;;;;;;23.65;9.95;;;10.70;99.90;;;;;;5007927;28;20030;-65
2022/10/02 06:29:55;;;;;;;30.75;11.00;;;10.70;99.90;;;;;;5007541;28;20042;-65
2022/10/02 06:32:40;;;;;;;35.85;10.27;;;10.70;99.90;;;;;;5004477;28;20041;-67
2022/10/02 06:35:14;;;;;;;27.80;10.23;;;10.60;99.90;;;;;;5006330;28;20037;-67
2022/10/02 06:38:04;;;;;;;36.88;11.70;;;10.60;99.90;;;;;;5009182;28;20061;-67
2022/10/02 06:40:59;;;;;;;33.13;9.73;;;10.70;99.90;;;;;;4998815;28;20026;-67
2022/10/02 06:43:58;;;;;;;29.15;8.35;;;10.70;99.90;;;;;;5007680;28;20074;-67
2022/10/02 06:46:55;;;;;;;29.17;9.13;;;10.80;99.90;;;;;;4996285;28;20120;-67
2022/10/02 06:50:05;;;;;;;24.15;8.27;;;10.70;99.90;;;;;;5007998;28;20049;-67
2022/10/02 06:52:55;;;;;;;25.40;7.70;;;10.70;99.90;;;;;;5008013;28;20401;-66
2022/10/02 06:55:31;;;;;;;24.20;7.72;;;10.70;99.90;;;;;;5002153;28;20327;-67
2022/10/02 06:58:11;;;;;;;20.23;6.97;;;10.60;99.90;;;;;;5007738;28;20073;-66
2022/10/02 07:00:48;;;;;;;34.13;8.52;;;10.60;99.90;;;;;;5000315;28;20034;-66
2022/10/02 07:03:56;;;;;;;31.25;7.85;;;10.60;99.90;;;;;;5006095;28;20065;-67
2022/10/02 07:06:59;;;;;;;21.48;6.93;;;10.60;99.90;;;;;;4999609;28;20116;-66
2022/10/02 07:09:40;;;;;;;22.42;7.03;;;10.70;99.90;;;;;;4997279;28;20359;-66
2022/10/02 07:12:39;;;;;;;26.67;6.20;;;10.80;99.90;;;;;;5004188;28;20037;-67
2022/10/02 07:15:10;;;;;;;26.10;6.18;;;10.90;99.90;;;;;;5007818;28;20542;-66
2022/10/02 07:18:05;;;;;;;24.50;5.88;;;10.90;99.90;;;;;;5006863;28;20026;-66
2022/10/02 07:20:43;;;;;;;27.80;6.70;;;11.00;99.90;;;;;;5008761;28;20117;-67
2022/10/02 07:23:17;;;;;;;17.40;6.63;;;11.10;99.90;;;;;;5008084;28;20175;-66
2022/10/02 07:26:20;;;;;;;21.63;6.82;;;11.10;99.90;;;;;;5005790;28;20033;-67
2022/10/02 07:29:00;;;;;;;21.77;6.53;;;11.20;99.90;;;;;;5007899;28;20213;-66
2022/10/02 07:31:48;;;;;;;30.77;7.37;;;11.30;99.90;;;;;;5006611;28;20113;-68
2022/10/02 07:34:28;;;;;;;26.65;7.63;;;11.30;99.90;;;;;;4997024;28;20096;-67
2022/10/02 07:37:28;;;;;;;24.25;7.15;;;11.50;99.90;;;;;;5008911;28;20109;-69
2022/10/02 07:40:05;;;;;;;23.67;7.93;;;11.60;99.90;;;;;;4997724;28;20167;-67
2022/10/02 07:42:43;;;;;;;30.23;8.98;;;11.70;99.90;;;;;;5007543;28;20107;-67
2022/10/02 07:45:19;;;;;;;24.95;8.30;;;11.80;99.80;;;;;;5009972;28;20038;-67
2022/10/02 07:48:03;;;;;;;32.00;8.32;;;11.80;99.80;;;;;;5008857;28;20125;-73
2022/10/02 07:51:01;;;;;;;21.45;7.43;;;11.80;99.60;;;;;;4998170;28;20058;-68
2022/10/02 07:53:50;;;;;;;28.17;7.65;;;11.90;99.60;;;;;;5000380;28;20108;-70
2022/10/02 07:56:21;;;;;;;23.33;9.05;;;11.90;99.30;;;;;;4990253;28;20042;-67
2022/10/02 07:59:02;;;;;;;21.00;7.55;;;12.00;99.40;;;;;;5005967;28;20103;-65
2022/10/02 08:01:31;;;;;;;;;;;12.10;99.30;;;;;;5009131;28;20034;-66
2022/10/02 08:04:02;;;;;;;17.27;7.10;;;12.10;99.20;;;;;;5004319;28;19918;-66
2022/10/02 08:06:28;;;;;;;23.30;8.38;;;12.20;99.20;;;;;;5007199;28;20038;-67
2022/10/02 08:09:05;;;;;;;22.23;8.25;;;12.10;98.90;;;;;;5006923;28;20431;-67
2022/10/02 08:11:39;;;;;;;20.48;9.10;;;12.10;98.70;;;;;;5003286;28;20165;-66
2022/10/02 08:14:29;;;;;;;22.88;8.68;;;12.10;98.70;;;;;;5001605;28;20038;-66
2022/10/02 08:17:00;;;;;;;28.70;9.40;;;12.20;98.50;;;;;;4997490;28;20030;-67
2022/10/02 08:19:39;;;;;;;19.40;9.52;;;12.40;98.50;;;;;;5003782;28;20068;-66
2022/10/02 08:22:30;;;;;;;21.90;9.57;;;12.40;98.40;;;;;;5004851;28;20057;-66
2022/10/02 08:25:04;;;;;;;17.05;8.63;;;12.50;98.00;;;;;;5000719;28;20096;-66
2022/10/02 08:27:54;;;;;;;26.98;9.25;;;12.60;97.50;;;;;;5005546;28;20030;-66
2022/10/02 08:30:20;;;;;;;20.50;8.47;;;12.80;97.50;;;;;;5000790;28;20038;-67
2022/10/02 08:32:46;;;;;;;25.25;8.55;;;12.80;97.00;;;;;;5002481;28;20295;-67
2022/10/02 08:35:15;;;;;;;17.55;7.95;;;12.80;97.00;;;;;;5003171;28;20045;-66
2022/10/02 08:37:53;;;;;;;20.42;7.75;;;12.90;96.50;;;;;;5008951;28;20030;-66
2022/10/02 08:40:50;;;;;;;19.60;7.38;;;13.00;96.40;;;;;;4995510;28;20041;-66
2022/10/02 08:43:46;;;;;;;10.25;5.47;;;13.10;96.60;;;;;;5001002;28;20034;-68
2022/10/02 08:46:55;;;;;;;18.45;6.55;;;13.10;96.20;;;;;;5001161;28;20121;-66
2022/10/02 08:49:42;;;;;;;18.75;6.05;;;13.30;96.20;;;;;;4996310;28;20121;-66
2022/10/02 08:52:41;;;;;;;15.27;4.65;;;13.30;95.80;;;;;;5007752;28;20377;-66
2022/10/02 08:55:31;;;;;;;17.95;5.13;;;13.40;95.40;;;;;;4975273;28;20542;-66
2022/10/02 08:58:48;;;;;;;21.83;4.65;;;13.50;95.70;;;;;;5007062;28;20100;-67
2022/10/02 09:01:55;;;;;;;12.40;3.88;;;13.80;95.10;;;;;;4985371;28;20210;-66
2022/10/02 09:04:48;;;;;;;11.93;4.13;;;13.90;94.30;;;;;;4988610;28;20041;-67
2022/10/02 09:07:35;;;;;;;16.95;3.88;;;14.00;94.20;;;;;;5004857;28;20076;-65
2022/10/02 09:10:44;;;;;;;12.13;3.10;;;14.10;92.90;;;;;;4992801;28;20109;-69
2022/10/02 09:13:35;;;;;;;10.90;2.25;;;14.30;93.40;;;;;;5004590;28;20034;-66
2022/10/02 09:16:09;;;;;;;12.95;2.22;;;14.10;92.50;;;;;;4994164;28;20038;-66
2022/10/02 09:18:49;;;;;;;10.75;2.55;;;14.10;92.60;;;;;;5000535;28;20455;-66
2022/10/02 09:21:17;;;;;;;11.40;2.40;;;14.20;91.90;;;;;;4998698;28;20026;-66
2022/10/02 09:24:16;;;;;;;16.60;2.15;;;14.40;92.30;;;;;;4997918;28;20080;-67
2022/10/02 09:26:51;;;;;;;11.50;2.00;;;14.70;92.00;;;;;;5006542;28;20160;-68
2022/10/02 09:29:33;;;;;;;11.75;2.15;;;14.70;90.70;;;;;;4999705;28;20109;-66
2022/10/02 09:32:10;;;;;;;9.23;1.73;;;15.10;90.30;;;;;;5000377;28;20449;-69
2022/10/02 09:34:54;;;;;;;10.98;2.50;;;14.90;89.20;;;;;;4991984;28;20057;-68
2022/10/02 09:37:48;;;;;;;8.50;2.00;;;14.80;88.20;;;;;;5003870;28;20108;-66
2022/10/02 09:40:38;;;;;;;11.65;1.92;;;14.70;88.50;;;;;;5001715;28;20056;-65
2022/10/02 09:43:34;;;;;;;10.37;1.90;;;14.60;88.50;;;;;;5000684;28;20041;-65
2022/10/02 09:46:25;;;;;;;13.98;1.88;;;14.60;87.60;;;;;;5003154;28;20026;-66
2022/10/02 09:49:01;;;;;;;10.00;2.13;;;14.60;88.00;;;;;;5000204;28;20030;-65
2022/10/02 09:51:39;;;;;;;9.85;1.70;;;14.50;88.00;;;;;;5001687;28;20418;-65
2022/10/02 09:54:37;;;;;;;9.63;1.67;;;14.50;88.40;;;;;;4999997;28;20541;-66
2022/10/02 09:57:30;;;;;;;9.18;1.90;;;14.30;87.80;;;;;;5000051;28;20062;-67
2022/10/02 10:00:33;;;;;;;8.98;1.30;;;14.20;88.30;;;;;;5006157;28;20071;-66
2022/10/02 10:03:27;;;;;;;5.30;1.33;;;14.10;88.50;;;;;;4997959;28;20151;-66
2022/10/02 10:06:14;;;;;;;5.72;1.08;;;14.10;88.60;;;;;;5003916;28;20034;-66
2022/10/02 10:08:49;;;;;;;5.80;1.17;;;14.50;86.20;;;;;;5001949;28;20037;-68
2022/10/02 10:11:28;;;;;;;7.32;1.33;;;14.70;86.00;;;;;;4997916;28;20037;-66
2022/10/02 10:14:09;;;;;;;7.88;1.35;;;14.60;85.70;;;;;;5004607;28;20369;-67
2022/10/02 10:17:29;;;;;;;8.80;1.17;;;14.80;85.40;;;;;;5001917;28;20046;-67
2022/10/02 10:20:00;;;;;;;6.35;1.33;;;15.10;85.30;;;;;;4942372;29;20039;-67
2022/10/02 10:22:44;;;;;;;;;;;15.50;83.40;;;;;;4941591;29;20058;-68
2022/10/02 10:25:35;;;;;;;8.82;1.60;;;15.60;82.90;;;;;;4981315;28;20270;-66
2022/10/02 10:28:23;;;;;;;8.43;1.05;;;15.50;83.30;;;;;;5002901;28;20320;-67
2022/10/02 10:31:11;;;;;;;6.18;1.27;;;15.60;83.20;;;;;;5003758;28;20770;-67
2022/10/02 10:34:13;;;;;;;12.02;1.63;;;15.80;82.00;;;;;;4990911;28;20060;-70
2022/10/02 10:40:15;;;;;;;8.75;1.88;;;15.50;81.80;;;;;;4988701;28;20064;-67
2022/10/02 10:43:08;;;;;;;5.30;1.70;;;15.90;80.20;;;;;;5003615;28;20057;-68
2022/10/02 10:45:53;;;;;;;8.02;1.42;;;16.40;79.90;;;;;;5008761;28;20120;-66
2022/10/02 10:48:59;;;;;;;6.20;1.55;;;16.30;80.40;;;;;;5001180;28;20071;-67
2022/10/02 10:51:32;;;;;;;10.38;1.33;;;16.00;81.40;;;;;;5011649;28;20117;-66
2022/10/02 10:54:47;;;;;;;7.85;1.40;;;15.80;80.70;;;;;;5000519;28;20033;-65
2022/10/02 10:57:59;;;;;;;5.75;1.38;;;16.10;80.30;;;;;;5003369;28;20072;-66
2022/10/02 11:00:53;;;;;;;9.93;1.65;;;16.10;79.20;;;;;;5011220;28;20144;-67
2022/10/02 11:03:36;;;;;;;10.07;1.67;;;16.00;80.20;;;;;;5001781;28;20472;-67
2022/10/02 11:06:26;;;;;;;10.07;2.13;;;15.90;79.60;;;;;;5004952;28;20040;-67
2022/10/02 11:08:57;;;;;;;6.88;2.00;;;16.10;79.60;;;;;;5002744;28;20428;-67
2022/10/02 11:11:46;;;;;;;11.43;2.30;;;16.40;78.90;;;;;;5002695;28;20347;-66
2022/10/02 11:14:28;;;;;;;8.40;1.98;;;16.40;79.80;;;;;;5001669;28;20423;-66
2022/10/02 11:17:36;;;;;;;6.03;2.08;;;16.60;77.80;;;;;;5008226;28;20033;-66
2022/10/02 11:20:23;;;;;;;13.98;3.38;;;16.50;78.20;;;;;;5001976;28;20030;-67
2022/10/02 11:23:10;;;;;;;13.02;2.33;;;17.00;78.80;;;;;;5006988;28;20030;-66
2022/10/02 11:26:04;;;;;;;9.85;2.15;;;17.00;77.30;;;;;;5000536;28;20501;-67
2022/10/02 11:28:40;;;;;;;9.63;2.28;;;17.10;75.90;;;;;;4977991;28;20476;-67
2022/10/02 11:31:26;;;;;;;12.85;2.65;;;17.00;75.40;;;;;;5008248;28;20021;-66
2022/10/02 11:34:15;;;;;;;13.95;2.50;;;17.20;76.10;;;;;;4999115;28;20086;-68
2022/10/02 11:37:04;;;;;;;10.30;1.92;;;17.00;76.70;;;;;;5004271;28;20077;-67
2022/10/02 11:40:03;;;;;;;9.57;1.60;;;17.20;76.30;;;;;;5001896;28;20073;-67
2022/10/02 11:42:43;;;;;;;9.07;2.40;;;17.10;75.60;;;;;;5002196;28;20026;-66
2022/10/02 11:45:46;;;;;;;10.25;2.03;;;17.70;75.90;;;;;;5006094;28;20033;-69
2022/10/02 11:48:30;;;;;;;8.88;1.63;;;18.30;71.80;;;;;;5001153;28;20795;-68
2022/10/02 11:51:19;;;;;;;10.52;1.80;;;18.40;72.60;;;;;;5003123;28;20049;-70
2022/10/02 11:53:48;;;;;;;7.32;1.60;;;17.90;71.20;;;;;;5006802;28;20025;-67
2022/10/02 11:56:30;;;;;;;9.32;1.48;;;16.80;77.90;;;;;;4993209;28;20033;-67
2022/10/02 11:59:23;;;;;;;8.57;1.40;;;15.20;84.30;;;;;;5009507;28;20037;-66
2022/10/02 12:02:11;;;;;;;8.05;1.40;;;14.40;87.00;;;;;;4996332;28;20060;-66
2022/10/02 12:04:56;;;;;;;9.82;1.30;;;14.20;88.40;;;;;;5004269;28;20033;-66
2022/10/02 12:07:37;;;;;;;11.10;1.80;;;14.00;90.00;;;;;;5001836;28;20057;-66
2022/10/02 12:10:40;;;;;;;12.68;2.08;;;13.80;90.80;;;;;;5000014;28;20117;-69
2022/10/02 12:13:14;;;;;;;11.63;2.33;;;13.80;91.80;;;;;;5003280;28;20469;-67
2022/10/02 12:16:04;;;;;;;9.75;1.73;;;13.60;91.60;;;;;;5015445;28;20144;-67
2022/10/02 12:19:00;;;;;;;7.80;2.65;;;13.60;91.60;;;;;;4998736;28;20157;-67
2022/10/02 12:27:30;;;;;;;10.73;2.47;;;15.50;85.20;;;;;;5004751;28;20160;-67
2022/10/02 12:30:17;;;;;;;10.85;2.65;;;16.00;85.30;;;;;;5006584;28;20034;-68
2022/10/02 12:33:00;;;;;;;7.95;1.70;;;16.60;83.10;;;;;;4997839;28;20030;-67
2022/10/02 12:35:50;;;;;;;10.13;1.48;;;17.10;81.80;;;;;;4998258;28;20030;-70
2022/10/02 12:38:22;;;;;;;7.57;1.52;;;17.50;80.30;;;;;;4999908;28;20049;-67
2022/10/02 12:41:06;;;;;;;7.15;1.38;;;17.50;79.00;;;;;;5017858;28;20128;-67
2022/10/02 12:44:09;;;;;;;8.40;1.85;;;17.10;78.60;;;;;;4996643;28;20037;-67
2022/10/02 12:46:45;;;;;;;10.32;3.42;;;16.20;81.50;;;;;;5002753;28;20124;-69
2022/10/02 12:49:28;;;;;;;9.02;1.60;;;15.70;83.40;;;;;;5006214;28;20148;-67
2022/10/02 12:52:35;;;;;;;6.20;1.85;;;15.40;83.70;;;;;;5001757;28;20030;-67
2022/10/02 12:55:03;;;;;;;9.60;1.60;;;16.00;83.20;;;;;;5000947;28;20031;-69
2022/10/02 12:57:51;;;;;;;11.10;1.75;;;17.00;80.70;;;;;;5008144;28;20065;-68
2022/10/02 13:00:23;;;;;;;9.45;1.45;;;17.60;79.00;;;;;;5005059;28;20056;-68
2022/10/02 13:02:55;;;;;;;5.90;1.33;;;18.20;77.70;;;;;;4990005;28;20027;-68
2022/10/02 13:06:00;;;;;;;6.95;1.65;;;18.70;76.40;;;;;;5005282;28;20379;-68
2022/10/02 13:09:02;;;;;;;10.32;1.50;;;18.50;81.20;;;;;;4981004;28;20081;-68
2022/10/02 13:12:01;;;;;;;10.40;1.98;;;18.30;86.50;;;;;;5011189;28;20086;-68
2022/10/02 13:14:26;;;;;;;10.38;1.80;;;17.70;83.30;;;;;;5008318;28;20120;-69
2022/10/02 13:17:13;;;;;;;10.57;2.08;;;17.40;83.80;;;;;;5009327;28;20132;-67
2022/10/02 13:19:38;;;;;;;6.18;1.38;;;17.00;84.20;;;;;;4998332;28;20132;-67
2022/10/02 13:22:20;;;;;;;7.97;1.73;;;16.00;83.70;;;;;;5008569;28;20153;-67
2022/10/02 13:24:54;;;;;;;7.38;1.30;;;15.40;83.20;;;;;;5005748;28;20402;-67
2022/10/02 13:27:36;;;;;;;6.53;1.10;;;15.40;86.10;;;;;;5006881;28;20437;-67
2022/10/02 13:30:21;;;;;;;7.38;1.52;;;15.60;84.50;;;;;;5009367;28;20096;-67
2022/10/02 13:33:07;;;;;;;9.73;1.55;;;15.60;82.60;;;;;;5012802;28;20426;-67
2022/10/02 13:36:08;;;;;;;10.52;2.15;;;15.50;84.00;;;;;;5005508;28;20026;-67
2022/10/02 13:38:46;;;;;;;;;;;15.20;84.50;;;;;;5006813;28;20045;-68
2022/10/02 13:41:19;;;;;;;8.95;1.20;;;14.80;85.10;;;;;;5010787;28;19909;-67
2022/10/02 13:43:56;;;;;;;12.48;1.50;;;14.60;85.60;;;;;;5019911;28;20129;-67
2022/10/02 13:46:44;;;;;;;8.18;1.83;;;14.40;85.00;;;;;;5011917;28;20454;-67
2022/10/02 13:49:24;;;;;;;7.20;1.75;;;14.30;85.10;;;;;;5009372;28;20030;-69
2022/10/02 13:52:31;;;;;;;13.57;2.17;;;14.50;85.70;;;;;;5009581;28;20160;-67
2022/10/02 13:55:24;;;;;;;10.27;2.10;;;14.90;85.80;;;;;;5010761;28;20129;-67
2022/10/02 13:58:27;;;;;;;18.50;2.45;;;15.10;81.90;;;;;;5009597;28;20404;-68
2022/10/02 14:01:08;;;;;;;15.63;2.97;;;15.30;80.00;;;;;;5004533;28;20033;-67
2022/10/02 14:04:11;;;;;;;11.32;2.30;;;15.80;78.70;;;;;;5011498;28;20038;-67
2022/10/02 14:06:54;;;;;;;13.50;1.98;;;15.60;78.60;;;;;;5011300;28;20334;-67
2022/10/02 14:09:38;;;;;;;13.23;2.22;;;16.40;78.00;;;;;;5001018;28;20203;-67
2022/10/02 14:12:22;;;;;;;11.23;1.98;;;16.50;77.70;;;;;;5006835;28;20140;-67